sensor_id;sensor_type;location;lat;lon;timestamp;pressure;altitude;pressure_sealevel;temperature;humidity
34081;BME280;20358;50.272;19.026;2023-08-07T00:02:14;97007.13;;;19.32;67.31
34081;BME280;20358;50.272;19.026;2023-08-07T00:05:20;97004.13;;;19.27;67.28
34081;BME280;20358;50.272;19.026;2023-08-07T00:08:27;97000.31;;;19.29;67.30
34081;BME280;20358;50.272;19.026;2023-08-07T00:11:37;97001.47;;;19.27;67.49
34081;BME280;20358;50.272;19.026;2023-08-07T00:14:47;96998.16;;;19.25;67.47
34081;BME280;20358;50.272;19.026;2023-08-07T00:17:53;96987.53;;;19.08;67.38
34081;BME280;20358;50.272;19.026;2023-08-07T00:21:04;96992.16;;;19.14;67.58
34081;BME280;20358;50.272;19.026;2023-08-07T00:24:11;96989.50;;;19.06;67.79
34081;BME280;20358;50.272;19.026;2023-08-07T00:27:21;96991.63;;;19.03;68.67
34081;BME280;20358;50.272;19.026;2023-08-07T00:30:29;97004.88;;;19.03;68.53
34081;BME280;20358;50.272;19.026;2023-08-07T00:33:37;97007.66;;;19.01;68.15
34081;BME280;20358;50.272;19.026;2023-08-07T00:36:44;97002.50;;;18.92;68.65
34081;BME280;20358;50.272;19.026;2023-08-07T00:39:52;97000.66;;;18.84;69.00
34081;BME280;20358;50.272;19.026;2023-08-07T00:43:00;97000.50;;;18.78;69.67
34081;BME280;20358;50.272;19.026;2023-08-07T00:46:11;96997.16;;;18.76;69.73
34081;BME280;20358;50.272;19.026;2023-08-07T00:49:19;97004.25;;;18.67;70.02
34081;BME280;20358;50.272;19.026;2023-08-07T00:52:29;96997.59;;;18.63;70.24
34081;BME280;20358;50.272;19.026;2023-08-07T00:55:35;96999.56;;;18.61;70.81
34081;BME280;20358;50.272;19.026;2023-08-07T00:58:45;96985.00;;;18.65;70.95
34081;BME280;20358;50.272;19.026;2023-08-07T01:01:52;96975.78;;;18.69;70.74
34081;BME280;20358;50.272;19.026;2023-08-07T01:05:01;96979.06;;;18.63;70.65
34081;BME280;20358;50.272;19.026;2023-08-07T01:08:09;96981.88;;;18.62;70.29
34081;BME280;20358;50.272;19.026;2023-08-07T01:11:22;96974.06;;;18.60;70.64
34081;BME280;20358;50.272;19.026;2023-08-07T01:14:49;96978.56;;;18.60;70.68
34081;BME280;20358;50.272;19.026;2023-08-07T01:18:03;96978.53;;;18.51;70.62
34081;BME280;20358;50.272;19.026;2023-08-07T01:21:19;96981.53;;;18.56;70.99
34081;BME280;20358;50.272;19.026;2023-08-07T01:24:32;96979.53;;;18.58;70.75
34081;BME280;20358;50.272;19.026;2023-08-07T01:27:46;96985.97;;;18.56;70.89
34081;BME280;20358;50.272;19.026;2023-08-07T01:31:09;96987.66;;;18.57;70.73
34081;BME280;20358;50.272;19.026;2023-08-07T01:34:23;96989.59;;;18.55;70.78
34081;BME280;20358;50.272;19.026;2023-08-07T01:37:37;96978.81;;;18.48;70.75
34081;BME280;20358;50.272;19.026;2023-08-07T01:40:50;96989.28;;;18.58;70.84
34081;BME280;20358;50.272;19.026;2023-08-07T01:44:00;96990.44;;;18.55;70.35
34081;BME280;20358;50.272;19.026;2023-08-07T01:47:07;96992.28;;;18.63;70.75
34081;BME280;20358;50.272;19.026;2023-08-07T01:50:16;96995.94;;;18.62;70.54
34081;BME280;20358;50.272;19.026;2023-08-07T01:53:22;96985.66;;;18.59;70.70
34081;BME280;20358;50.272;19.026;2023-08-07T01:56:32;96985.97;;;18.56;70.67
34081;BME280;20358;50.272;19.026;2023-08-07T01:59:38;96984.84;;;18.58;70.69
34081;BME280;20358;50.272;19.026;2023-08-07T02:02:46;96992.59;;;18.60;71.12
34081;BME280;20358;50.272;19.026;2023-08-07T02:05:53;96991.81;;;18.60;70.45
34081;BME280;20358;50.272;19.026;2023-08-07T02:09:03;96983.84;;;18.60;70.64
34081;BME280;20358;50.272;19.026;2023-08-07T02:12:12;96988.97;;;18.61;70.97
34081;BME280;20358;50.272;19.026;2023-08-07T02:15:20;96987.47;;;18.58;71.02
34081;BME280;20358;50.272;19.026;2023-08-07T02:18:27;96986.16;;;18.63;71.17
34081;BME280;20358;50.272;19.026;2023-08-07T02:21:34;96981.41;;;18.66;70.62
34081;BME280;20358;50.272;19.026;2023-08-07T02:24:40;96987.00;;;18.63;70.80
34081;BME280;20358;50.272;19.026;2023-08-07T02:27:50;96987.31;;;18.60;70.85
34081;BME280;20358;50.272;19.026;2023-08-07T02:30:56;96983.38;;;18.64;70.67
34081;BME280;20358;50.272;19.026;2023-08-07T02:34:02;96991.34;;;18.72;70.63
34081;BME280;20358;50.272;19.026;2023-08-07T02:37:10;96997.50;;;18.73;70.70
34081;BME280;20358;50.272;19.026;2023-08-07T02:40:17;96991.34;;;18.72;70.08
34081;BME280;20358;50.272;19.026;2023-08-07T02:43:25;96993.53;;;18.77;70.24
34081;BME280;20358;50.272;19.026;2023-08-07T02:46:33;96999.25;;;18.64;70.16
34081;BME280;20358;50.272;19.026;2023-08-07T02:49:39;96986.69;;;18.66;70.36
34081;BME280;20358;50.272;19.026;2023-08-07T02:52:46;96994.97;;;18.71;70.25
34081;BME280;20358;50.272;19.026;2023-08-07T02:55:52;97007.41;;;18.79;70.09
34081;BME280;20358;50.272;19.026;2023-08-07T02:59:01;97003.63;;;18.81;69.74
34081;BME280;20358;50.272;19.026;2023-08-07T03:02:08;97002.31;;;18.77;69.84
34081;BME280;20358;50.272;19.026;2023-08-07T03:05:15;97002.97;;;18.79;69.93
34081;BME280;20358;50.272;19.026;2023-08-07T03:08:21;97002.97;;;18.79;69.94
34081;BME280;20358;50.272;19.026;2023-08-07T03:11:27;97003.31;;;18.84;69.52
34081;BME280;20358;50.272;19.026;2023-08-07T03:14:36;97001.28;;;18.78;69.93
34081;BME280;20358;50.272;19.026;2023-08-07T03:17:45;97005.44;;;18.81;69.90
34081;BME280;20358;50.272;19.026;2023-08-07T03:20:58;96992.91;;;18.83;69.96
34081;BME280;20358;50.272;19.026;2023-08-07T03:24:06;96995.53;;;18.83;69.83
34081;BME280;20358;50.272;19.026;2023-08-07T03:27:18;97006.59;;;18.78;69.93
34081;BME280;20358;50.272;19.026;2023-08-07T03:30:29;97011.88;;;18.78;70.21
34081;BME280;20358;50.272;19.026;2023-08-07T03:33:38;96986.38;;;18.69;70.24
34081;BME280;20358;50.272;19.026;2023-08-07T03:36:45;97003.59;;;18.73;70.04
34081;BME280;20358;50.272;19.026;2023-08-07T03:39:53;97008.88;;;18.73;70.43
34081;BME280;20358;50.272;19.026;2023-08-07T03:43:02;97014.19;;;18.73;70.65
34081;BME280;20358;50.272;19.026;2023-08-07T03:46:11;97003.28;;;18.76;70.63
34081;BME280;20358;50.272;19.026;2023-08-07T03:49:19;97017.88;;;18.80;70.54
34081;BME280;20358;50.272;19.026;2023-08-07T03:52:26;97022.16;;;18.81;70.33
34081;BME280;20358;50.272;19.026;2023-08-07T03:55:36;97032.75;;;18.81;70.65
34081;BME280;20358;50.272;19.026;2023-08-07T03:58:43;97034.06;;;18.77;70.91
34081;BME280;20358;50.272;19.026;2023-08-07T04:01:59;97026.63;;;18.73;71.18
34081;BME280;20358;50.272;19.026;2023-08-07T04:05:07;97034.38;;;18.74;70.92
34081;BME280;20358;50.272;19.026;2023-08-07T04:08:15;97036.06;;;18.75;71.41
34081;BME280;20358;50.272;19.026;2023-08-07T04:11:23;97038.34;;;18.78;71.04
34081;BME280;20358;50.272;19.026;2023-08-07T04:14:30;97023.13;;;18.72;71.27
34081;BME280;20358;50.272;19.026;2023-08-07T04:17:39;97033.59;;;18.82;70.99
34081;BME280;20358;50.272;19.026;2023-08-07T04:20:53;97030.06;;;18.73;71.12
34081;BME280;20358;50.272;19.026;2023-08-07T04:24:03;97036.19;;;18.74;71.10
34081;BME280;20358;50.272;19.026;2023-08-07T04:27:13;97043.94;;;18.67;70.78
34081;BME280;20358;50.272;19.026;2023-08-07T04:30:19;97043.25;;;18.65;71.33
34081;BME280;20358;50.272;19.026;2023-08-07T04:33:31;97038.97;;;18.64;71.90
34081;BME280;20358;50.272;19.026;2023-08-07T04:36:36;97037.47;;;18.62;71.56
34081;BME280;20358;50.272;19.026;2023-08-07T04:39:43;97042.44;;;18.65;71.44
34081;BME280;20358;50.272;19.026;2023-08-07T04:42:49;97032.88;;;18.72;71.56
34081;BME280;20358;50.272;19.026;2023-08-07T04:45:56;97035.69;;;18.70;71.17
34081;BME280;20358;50.272;19.026;2023-08-07T04:49:04;97038.19;;;18.72;71.23
34081;BME280;20358;50.272;19.026;2023-08-07T04:52:11;97027.91;;;18.69;71.13
34081;BME280;20358;50.272;19.026;2023-08-07T04:55:27;97043.28;;;18.73;71.76
34081;BME280;20358;50.272;19.026;2023-08-07T04:58:34;97047.63;;;18.74;70.94
34081;BME280;20358;50.272;19.026;2023-08-07T05:01:40;97045.94;;;18.73;70.79
34081;BME280;20358;50.272;19.026;2023-08-07T05:04:49;97057.28;;;18.57;71.02
34081;BME280;20358;50.272;19.026;2023-08-07T05:07:58;97065.38;;;18.56;71.58
34081;BME280;20358;50.272;19.026;2023-08-07T05:11:06;97053.47;;;18.52;71.67
34081;BME280;20358;50.272;19.026;2023-08-07T05:14:12;97057.38;;;18.48;71.91
34081;BME280;20358;50.272;19.026;2023-08-07T05:17:19;97050.81;;;18.34;71.78
34081;BME280;20358;50.272;19.026;2023-08-07T05:20:28;97062.03;;;18.28;72.24
34081;BME280;20358;50.272;19.026;2023-08-07T05:23:35;97068.13;;;18.29;73.09
34081;BME280;20358;50.272;19.026;2023-08-07T05:26:43;97048.66;;;18.12;72.78
34081;BME280;20358;50.272;19.026;2023-08-07T05:29:50;97064.59;;;18.20;72.84
34081;BME280;20358;50.272;19.026;2023-08-07T05:33:00;97077.06;;;18.28;72.96
34081;BME280;20358;50.272;19.026;2023-08-07T05:36:10;97078.19;;;18.25;72.50
34081;BME280;20358;50.272;19.026;2023-08-07T05:39:18;97074.88;;;18.23;73.25
34081;BME280;20358;50.272;19.026;2023-08-07T05:42:26;97086.28;;;18.24;72.63
34081;BME280;20358;50.272;19.026;2023-08-07T05:45:34;97068.31;;;18.10;72.64
34081;BME280;20358;50.272;19.026;2023-08-07T05:48:41;97084.19;;;18.10;72.96
34081;BME280;20358;50.272;19.026;2023-08-07T05:51:50;97083.53;;;18.08;73.55
34081;BME280;20358;50.272;19.026;2023-08-07T05:54:58;97089.47;;;18.10;74.54
34081;BME280;20358;50.272;19.026;2023-08-07T05:58:06;97093.34;;;18.15;74.57
34081;BME280;20358;50.272;19.026;2023-08-07T06:01:14;97093.16;;;18.17;74.09
34081;BME280;20358;50.272;19.026;2023-08-07T06:04:21;97092.78;;;18.12;74.10
34081;BME280;20358;50.272;19.026;2023-08-07T06:07:32;97096.75;;;18.08;74.24
34081;BME280;20358;50.272;19.026;2023-08-07T06:10:45;97099.47;;;18.16;74.84
34081;BME280;20358;50.272;19.026;2023-08-07T06:13:52;97099.13;;;18.19;73.75
34081;BME280;20358;50.272;19.026;2023-08-07T06:16:58;97102.47;;;18.21;73.64
34081;BME280;20358;50.272;19.026;2023-08-07T06:20:07;97109.09;;;18.25;73.34
34081;BME280;20358;50.272;19.026;2023-08-07T06:23:19;97098.31;;;18.18;72.23
34081;BME280;20358;50.272;19.026;2023-08-07T06:26:28;97109.09;;;18.25;72.70
34081;BME280;20358;50.272;19.026;2023-08-07T06:29:34;97103.53;;;18.28;73.18
34081;BME280;20358;50.272;19.026;2023-08-07T06:32:44;97102.91;;;18.34;73.12
34081;BME280;20358;50.272;19.026;2023-08-07T06:35:52;97104.09;;;18.39;72.50
34081;BME280;20358;50.272;19.026;2023-08-07T06:39:04;97108.63;;;18.47;71.44
34081;BME280;20358;50.272;19.026;2023-08-07T06:42:13;97114.47;;;18.50;71.86
34081;BME280;20358;50.272;19.026;2023-08-07T06:45:25;97103.56;;;18.53;71.34
34081;BME280;20358;50.272;19.026;2023-08-07T06:48:31;97101.69;;;18.46;71.37
34081;BME280;20358;50.272;19.026;2023-08-07T06:51:38;97103.03;;;18.50;70.97
34081;BME280;20358;50.272;19.026;2023-08-07T06:54:47;97115.59;;;18.48;70.70
34081;BME280;20358;50.272;19.026;2023-08-07T06:57:53;97115.19;;;18.61;71.96
34081;BME280;20358;50.272;19.026;2023-08-07T07:00:59;97110.78;;;18.69;71.50
34081;BME280;20358;50.272;19.026;2023-08-07T07:04:08;97119.28;;;18.73;70.47
34081;BME280;20358;50.272;19.026;2023-08-07T07:07:15;97120.59;;;18.77;70.82
34081;BME280;20358;50.272;19.026;2023-08-07T07:10:27;97117.47;;;18.81;69.81
34081;BME280;20358;50.272;19.026;2023-08-07T07:13:33;97111.81;;;18.76;70.00
34081;BME280;20358;50.272;19.026;2023-08-07T07:16:42;97117.47;;;18.81;69.95
34081;BME280;20358;50.272;19.026;2023-08-07T07:19:49;97123.50;;;18.91;69.56
34081;BME280;20358;50.272;19.026;2023-08-07T07:22:58;97132.50;;;18.98;70.54
34081;BME280;20358;50.272;19.026;2023-08-07T07:26:06;97130.78;;;18.89;69.22
34081;BME280;20358;50.272;19.026;2023-08-07T07:29:13;97132.88;;;18.78;69.03
34081;BME280;20358;50.272;19.026;2023-08-07T07:32:20;97138.97;;;18.78;70.32
34081;BME280;20358;50.272;19.026;2023-08-07T07:35:30;97142.63;;;18.77;70.39
34081;BME280;20358;50.272;19.026;2023-08-07T07:38:38;97147.66;;;18.88;70.74
34081;BME280;20358;50.272;19.026;2023-08-07T07:41:51;97149.69;;;18.94;69.77
34081;BME280;20358;50.272;19.026;2023-08-07T07:44:57;97155.63;;;18.96;69.28
34081;BME280;20358;50.272;19.026;2023-08-07T07:48:06;97159.78;;;18.91;69.22
34081;BME280;20358;50.272;19.026;2023-08-07T07:51:16;97161.22;;;18.85;69.88
34081;BME280;20358;50.272;19.026;2023-08-07T07:54:33;97155.94;;;18.85;69.99
34081;BME280;20358;50.272;19.026;2023-08-07T07:57:45;97158.28;;;18.96;71.44
34081;BME280;20358;50.272;19.026;2023-08-07T08:00:55;97162.34;;;19.08;70.73
34081;BME280;20358;50.272;19.026;2023-08-07T08:04:03;97163.06;;;19.18;70.08
34081;BME280;20358;50.272;19.026;2023-08-07T08:07:10;97160.25;;;19.20;69.62
34081;BME280;20358;50.272;19.026;2023-08-07T08:10:16;97167.75;;;19.25;70.16
34081;BME280;20358;50.272;19.026;2023-08-07T08:13:28;97178.97;;;19.18;69.11
34081;BME280;20358;50.272;19.026;2023-08-07T08:16:36;97168.38;;;19.18;69.73
34081;BME280;20358;50.272;19.026;2023-08-07T08:19:46;97176.38;;;19.27;70.55
34081;BME280;20358;50.272;19.026;2023-08-07T08:22:55;97184.00;;;19.30;69.20
34081;BME280;20358;50.272;19.026;2023-08-07T08:26:03;97178.34;;;19.25;69.31
34081;BME280;20358;50.272;19.026;2023-08-07T08:29:18;97185.28;;;19.26;70.28
34081;BME280;20358;50.272;19.026;2023-08-07T08:32:38;97188.00;;;19.34;69.87
34081;BME280;20358;50.272;19.026;2023-08-07T08:35:45;97193.38;;;19.42;69.22
34081;BME280;20358;50.272;19.026;2023-08-07T08:38:52;97196.91;;;19.33;70.64
34081;BME280;20358;50.272;19.026;2023-08-07T08:41:59;97186.97;;;19.27;69.82
34081;BME280;20358;50.272;19.026;2023-08-07T08:45:13;97195.78;;;19.61;69.74
34081;BME280;20358;50.272;19.026;2023-08-07T08:48:22;97190.06;;;19.90;67.98
34081;BME280;20358;50.272;19.026;2023-08-07T08:51:30;97194.56;;;20.05;66.82
34081;BME280;20358;50.272;19.026;2023-08-07T08:54:37;97204.88;;;20.08;67.60
34081;BME280;20358;50.272;19.026;2023-08-07T08:57:47;97197.28;;;20.21;68.67
34081;BME280;20358;50.272;19.026;2023-08-07T09:00:56;97199.66;;;20.32;67.88
34081;BME280;20358;50.272;19.026;2023-08-07T09:04:07;97204.66;;;20.44;68.04
34081;BME280;20358;50.272;19.026;2023-08-07T09:07:15;97203.34;;;20.56;67.16
34081;BME280;20358;50.272;19.026;2023-08-07T09:10:24;97211.13;;;20.65;67.48
34081;BME280;20358;50.272;19.026;2023-08-07T09:13:39;97203.66;;;20.53;65.27
34081;BME280;20358;50.272;19.026;2023-08-07T09:16:53;97199.00;;;20.38;66.26
34081;BME280;20358;50.272;19.026;2023-08-07T09:20:01;97199.34;;;20.52;66.92
34081;BME280;20358;50.272;19.026;2023-08-07T09:23:11;97192.88;;;20.46;65.74
34081;BME280;20358;50.272;19.026;2023-08-07T09:26:22;97213.13;;;20.55;67.21
34081;BME280;20358;50.272;19.026;2023-08-07T09:29:32;97209.28;;;20.33;66.38
34081;BME280;20358;50.272;19.026;2023-08-07T09:32:41;97227.84;;;20.25;67.13
34081;BME280;20358;50.272;19.026;2023-08-07T09:35:50;97220.78;;;20.08;67.31
34081;BME280;20358;50.272;19.026;2023-08-07T09:38:56;97223.91;;;19.96;68.02
34081;BME280;20358;50.272;19.026;2023-08-07T09:42:14;97234.34;;;19.89;69.30
34081;BME280;20358;50.272;19.026;2023-08-07T09:45:28;97231.34;;;19.84;67.92
34081;BME280;20358;50.272;19.026;2023-08-07T09:48:44;97246.00;;;19.62;68.88
34081;BME280;20358;50.272;19.026;2023-08-07T09:51:52;97241.00;;;19.34;68.76
34081;BME280;20358;50.272;19.026;2023-08-07T09:55:00;97235.38;;;19.37;69.35
34081;BME280;20358;50.272;19.026;2023-08-07T09:58:08;97246.47;;;19.14;69.37
34081;BME280;20358;50.272;19.026;2023-08-07T10:01:22;97248.81;;;18.92;70.67
34081;BME280;20358;50.272;19.026;2023-08-07T10:04:34;97258.94;;;18.96;71.68
34081;BME280;20358;50.272;19.026;2023-08-07T10:07:47;97259.53;;;19.08;72.06
34081;BME280;20358;50.272;19.026;2023-08-07T10:10:58;97269.97;;;19.09;71.32
34081;BME280;20358;50.272;19.026;2023-08-07T10:14:11;97264.59;;;19.01;71.15
34081;BME280;20358;50.272;19.026;2023-08-07T10:17:21;97288.78;;;18.98;70.96
34081;BME280;20358;50.272;19.026;2023-08-07T10:20:31;97301.41;;;18.87;71.35
34081;BME280;20358;50.272;19.026;2023-08-07T10:23:41;97305.41;;;18.55;66.23
34081;BME280;20358;50.272;19.026;2023-08-07T10:26:52;97273.69;;;18.01;67.39
34081;BME280;20358;50.272;19.026;2023-08-07T10:30:07;97306.56;;;17.98;68.50
34081;BME280;20358;50.272;19.026;2023-08-07T10:33:24;97314.88;;;17.76;70.07
34081;BME280;20358;50.272;19.026;2023-08-07T10:36:40;97321.56;;;17.71;71.28
34081;BME280;20358;50.272;19.026;2023-08-07T10:40:04;97317.03;;;17.34;69.94
34081;BME280;20358;50.272;19.026;2023-08-07T10:43:18;97313.03;;;17.21;71.54
34081;BME280;20358;50.272;19.026;2023-08-07T10:46:25;97309.03;;;17.17;71.93
34081;BME280;20358;50.272;19.026;2023-08-07T10:49:37;97311.94;;;17.14;72.13
34081;BME280;20358;50.272;19.026;2023-08-07T10:53:00;97319.72;;;17.06;72.23
34081;BME280;20358;50.272;19.026;2023-08-07T10:56:17;97328.34;;;17.08;73.83
34081;BME280;20358;50.272;19.026;2023-08-07T10:59:37;97324.44;;;17.12;73.90
34081;BME280;20358;50.272;19.026;2023-08-07T11:02:48;97328.88;;;17.02;73.05
34081;BME280;20358;50.272;19.026;2023-08-07T11:06:03;97322.22;;;17.07;73.81
34081;BME280;20358;50.272;19.026;2023-08-07T11:09:13;97328.34;;;17.08;73.54
34081;BME280;20358;50.272;19.026;2023-08-07T11:12:24;97297.50;;;16.99;73.41
34081;BME280;20358;50.272;19.026;2023-08-07T11:15:33;97319.16;;;17.12;73.36
34081;BME280;20358;50.272;19.026;2023-08-07T11:18:49;97318.31;;;17.21;73.29
34081;BME280;20358;50.272;19.026;2023-08-07T11:21:57;97321.09;;;17.19;73.39
34081;BME280;20358;50.272;19.026;2023-08-07T11:25:11;97324.44;;;17.12;74.60
34081;BME280;20358;50.272;19.026;2023-08-07T11:28:24;97284.56;;;16.96;74.31
34081;BME280;20358;50.272;19.026;2023-08-07T11:31:35;97319.00;;;17.13;74.12
34081;BME280;20358;50.272;19.026;2023-08-07T11:34:49;97328.88;;;17.21;73.89
34081;BME280;20358;50.272;19.026;2023-08-07T11:37:58;97329.72;;;17.21;74.45
34081;BME280;20358;50.272;19.026;2023-08-07T11:41:13;97333.31;;;17.30;75.02
34081;BME280;20358;50.272;19.026;2023-08-07T11:44:23;97319.69;;;17.25;75.17
34081;BME280;20358;50.272;19.026;2023-08-07T11:47:35;97336.38;;;17.35;74.08
34081;BME280;20358;50.272;19.026;2023-08-07T11:50:43;97332.75;;;17.36;74.11
34081;BME280;20358;50.272;19.026;2023-08-07T11:53:55;97323.16;;;17.35;73.73
34081;BME280;20358;50.272;19.026;2023-08-07T11:57:15;97315.50;;;17.32;73.65
34081;BME280;20358;50.272;19.026;2023-08-07T12:00:25;97342.31;;;17.66;74.49
34081;BME280;20358;50.272;19.026;2023-08-07T12:03:36;97348.28;;;17.68;72.98
34081;BME280;20358;50.272;19.026;2023-08-07T12:06:53;97357.16;;;17.76;73.08
34081;BME280;20358;50.272;19.026;2023-08-07T12:10:07;97328.22;;;17.75;73.25
34081;BME280;20358;50.272;19.026;2023-08-07T12:13:20;97324.84;;;17.82;73.01
34081;BME280;20358;50.272;19.026;2023-08-07T12:16:33;97359.38;;;18.18;73.14
34081;BME280;20358;50.272;19.026;2023-08-07T12:19:41;97353.84;;;18.29;73.78
34081;BME280;20358;50.272;19.026;2023-08-07T12:22:50;97358.13;;;18.49;73.03
34081;BME280;20358;50.272;19.026;2023-08-07T12:25:58;97359.06;;;18.75;74.02
34081;BME280;20358;50.272;19.026;2023-08-07T12:29:08;97386.91;;;18.97;70.60
34081;BME280;20358;50.272;19.026;2023-08-07T12:32:14;97389.34;;;19.08;70.30
34081;BME280;20358;50.272;19.026;2023-08-07T12:35:22;97367.09;;;19.01;69.55
34081;BME280;20358;50.272;19.026;2023-08-07T12:38:33;97334.91;;;18.78;69.52
34081;BME280;20358;50.272;19.026;2023-08-07T12:41:42;97386.84;;;19.06;69.13
34081;BME280;20358;50.272;19.026;2023-08-07T12:45:14;97403.19;;;19.19;69.24
34081;BME280;20358;50.272;19.026;2023-08-07T12:48:45;97401.53;;;19.18;68.65
34081;BME280;20358;50.272;19.026;2023-08-07T12:51:52;97412.22;;;19.27;68.58
34081;BME280;20358;50.272;19.026;2023-08-07T12:55:03;97405.72;;;19.39;70.46
34081;BME280;20358;50.272;19.026;2023-08-07T12:58:11;97407.91;;;19.61;70.21
34081;BME280;20358;50.272;19.026;2023-08-07T13:01:22;97407.50;;;19.99;68.24
34081;BME280;20358;50.272;19.026;2023-08-07T13:04:28;97408.94;;;20.19;68.13
34081;BME280;20358;50.272;19.026;2023-08-07T13:07:39;97389.91;;;20.24;67.15
34081;BME280;20358;50.272;19.026;2023-08-07T13:10:46;97420.75;;;20.59;66.60
34081;BME280;20358;50.272;19.026;2023-08-07T13:13:55;97413.84;;;20.74;65.79
34081;BME280;20358;50.272;19.026;2023-08-07T13:17:05;97415.88;;;20.96;65.30
34081;BME280;20358;50.272;19.026;2023-08-07T13:20:14;97409.47;;;21.15;64.90
34081;BME280;20358;50.272;19.026;2023-08-07T13:23:21;97411.00;;;21.33;63.90
34081;BME280;20358;50.272;19.026;2023-08-07T13:26:28;97421.00;;;21.55;63.19
34081;BME280;20358;50.272;19.026;2023-08-07T13:29:35;97419.31;;;21.54;63.23
34081;BME280;20358;50.272;19.026;2023-08-07T13:32:45;97415.81;;;21.54;63.06
34081;BME280;20358;50.272;19.026;2023-08-07T13:35:52;97419.31;;;21.71;62.20
34081;BME280;20358;50.272;19.026;2023-08-07T13:39:00;97413.66;;;21.90;61.64
34081;BME280;20358;50.272;19.026;2023-08-07T13:42:10;97406.69;;;21.97;62.19
34081;BME280;20358;50.272;19.026;2023-08-07T13:45:19;97416.97;;;22.08;60.51
34081;BME280;20358;50.272;19.026;2023-08-07T13:48:29;97417.25;;;22.21;60.07
34081;BME280;20358;50.272;19.026;2023-08-07T13:51:40;97427.81;;;22.53;60.66
34081;BME280;20358;50.272;19.026;2023-08-07T13:54:51;97436.72;;;22.84;58.05
34081;BME280;20358;50.272;19.026;2023-08-07T13:58:00;97431.16;;;22.63;58.89
34081;BME280;20358;50.272;19.026;2023-08-07T14:01:12;97434.47;;;22.57;57.96
34081;BME280;20358;50.272;19.026;2023-08-07T14:04:23;97432.81;;;22.56;59.16
34081;BME280;20358;50.272;19.026;2023-08-07T14:07:29;97425.69;;;22.49;58.43
34081;BME280;20358;50.272;19.026;2023-08-07T14:10:37;97421.88;;;22.43;59.22
34081;BME280;20358;50.272;19.026;2023-08-07T14:13:44;97432.38;;;22.37;59.01
34081;BME280;20358;50.272;19.026;2023-08-07T14:16:57;97434.38;;;22.35;60.44
34081;BME280;20358;50.272;19.026;2023-08-07T14:20:10;97428.84;;;22.44;60.11
34081;BME280;20358;50.272;19.026;2023-08-07T14:23:18;97440.13;;;22.54;58.98
34081;BME280;20358;50.272;19.026;2023-08-07T14:26:27;97435.13;;;22.67;58.41
34081;BME280;20358;50.272;19.026;2023-08-07T14:29:35;97452.13;;;22.66;57.08
34081;BME280;20358;50.272;19.026;2023-08-07T14:32:44;97447.44;;;22.68;57.91
34081;BME280;20358;50.272;19.026;2023-08-07T14:35:54;97443.91;;;22.76;56.61
34081;BME280;20358;50.272;19.026;2023-08-07T14:39:02;97438.06;;;22.80;57.23
34081;BME280;20358;50.272;19.026;2023-08-07T14:42:13;97449.72;;;22.79;57.24
34081;BME280;20358;50.272;19.026;2023-08-07T14:45:20;97455.94;;;22.72;56.34
34081;BME280;20358;50.272;19.026;2023-08-07T14:48:27;97470.78;;;22.50;56.50
34081;BME280;20358;50.272;19.026;2023-08-07T14:51:37;97458.34;;;22.27;57.42
34081;BME280;20358;50.272;19.026;2023-08-07T14:54:46;97459.53;;;22.16;57.79
34081;BME280;20358;50.272;19.026;2023-08-07T14:57:54;97461.22;;;22.01;57.67
34081;BME280;20358;50.272;19.026;2023-08-07T15:01:01;97471.38;;;21.89;57.73
34081;BME280;20358;50.272;19.026;2023-08-07T15:04:09;97477.53;;;21.66;58.44
34081;BME280;20358;50.272;19.026;2023-08-07T15:07:20;97479.84;;;21.52;58.80
34081;BME280;20358;50.272;19.026;2023-08-07T15:10:30;97465.84;;;21.34;60.09
34081;BME280;20358;50.272;19.026;2023-08-07T15:13:38;97495.34;;;21.07;61.91
34081;BME280;20358;50.272;19.026;2023-08-07T15:16:46;97501.19;;;20.77;63.36
34081;BME280;20358;50.272;19.026;2023-08-07T15:19:55;97505.63;;;20.42;65.24
34081;BME280;20358;50.272;19.026;2023-08-07T15:23:06;97511.94;;;19.98;68.78
34081;BME280;20358;50.272;19.026;2023-08-07T15:26:16;97495.78;;;19.66;70.21
34081;BME280;20358;50.272;19.026;2023-08-07T15:29:25;97492.28;;;19.48;71.79
34081;BME280;20358;50.272;19.026;2023-08-07T15:32:35;97503.50;;;19.42;72.29
34081;BME280;20358;50.272;19.026;2023-08-07T15:35:44;97508.50;;;19.35;71.32
34081;BME280;20358;50.272;19.026;2023-08-07T15:38:58;97498.53;;;19.29;71.44
34081;BME280;20358;50.272;19.026;2023-08-07T15:42:06;97490.41;;;19.31;72.21
34081;BME280;20358;50.272;19.026;2023-08-07T15:45:14;97498.75;;;19.36;71.50
34081;BME280;20358;50.272;19.026;2023-08-07T15:48:20;97496.47;;;19.50;71.83
34081;BME280;20358;50.272;19.026;2023-08-07T15:51:30;97510.66;;;19.85;73.56
34081;BME280;20358;50.272;19.026;2023-08-07T15:54:41;97525.50;;;20.13;72.75
34081;BME280;20358;50.272;19.026;2023-08-07T15:57:51;97516.84;;;20.11;69.25
34081;BME280;20358;50.272;19.026;2023-08-07T16:01:05;97511.84;;;20.25;70.21
34081;BME280;20358;50.272;19.026;2023-08-07T16:04:22;97527.69;;;20.69;72.46
34081;BME280;20358;50.272;19.026;2023-08-07T16:07:30;97530.59;;;21.17;71.03
34081;BME280;20358;50.272;19.026;2023-08-07T16:10:41;97524.56;;;21.57;67.55
34081;BME280;20358;50.272;19.026;2023-08-07T16:13:49;97520.63;;;21.93;67.18
34081;BME280;20358;50.272;19.026;2023-08-07T16:16:57;97522.44;;;22.33;65.84
34081;BME280;20358;50.272;19.026;2023-08-07T16:20:06;97522.56;;;22.72;62.33
34081;BME280;20358;50.272;19.026;2023-08-07T16:23:14;97520.69;;;23.19;62.32
34081;BME280;20358;50.272;19.026;2023-08-07T16:26:24;97528.00;;;23.56;58.79
34081;BME280;20358;50.272;19.026;2023-08-07T16:29:35;97528.72;;;23.50;57.40
34081;BME280;20358;50.272;19.026;2023-08-07T16:32:42;97513.81;;;22.86;57.53